sensor_id;sensor_type;location;lat;lon;timestamp;temperature;humidity
57132;DHT22;43005;52.922;5.742;2023-12-07T00:02:08;3.10;99.90
57132;DHT22;43005;52.922;5.742;2023-12-07T00:04:35;3.10;99.90
57132;DHT22;43005;52.922;5.742;2023-12-07T00:07:02;3.10;99.90
57132;DHT22;43005;52.922;5.742;2023-12-07T00:09:29;3.00;99.90
57132;DHT22;43005;52.922;5.742;2023-12-07T00:11:58;3.00;99.90
57132;DHT22;43005;52.922;5.742;2023-12-07T00:14:25;3.00;99.90
57132;DHT22;43005;52.922;5.742;2023-12-07T00:16:52;3.00;99.90
57132;DHT22;43005;52.922;5.742;2023-12-07T00:19:19;3.00;99.90
57132;DHT22;43005;52.922;5.742;2023-12-07T00:21:46;3.00;99.90
57132;DHT22;43005;52.922;5.742;2023-12-07T00:24:13;3.00;99.90
57132;DHT22;43005;52.922;5.742;2023-12-07T00:26:41;2.90;99.90
57132;DHT22;43005;52.922;5.742;2023-12-07T00:29:09;2.90;99.90
57132;DHT22;43005;52.922;5.742;2023-12-07T00:31:36;2.90;99.90
57132;DHT22;43005;52.922;5.742;2023-12-07T00:34:03;2.80;99.90
57132;DHT22;43005;52.922;5.742;2023-12-07T00:36:31;2.80;99.90
57132;DHT22;43005;52.922;5.742;2023-12-07T00:38:59;2.80;99.90
57132;DHT22;43005;52.922;5.742;2023-12-07T00:41:26;2.80;99.90
57132;DHT22;43005;52.922;5.742;2023-12-07T00:43:53;2.70;99.90
57132;DHT22;43005;52.922;5.742;2023-12-07T00:46:22;2.70;99.90
57132;DHT22;43005;52.922;5.742;2023-12-07T00:48:49;2.70;99.90
57132;DHT22;43005;52.922;5.742;2023-12-07T00:51:16;2.80;99.90
57132;DHT22;43005;52.922;5.742;2023-12-07T00:53:43;2.80;99.90
57132;DHT22;43005;52.922;5.742;2023-12-07T00:56:10;2.70;99.90
57132;DHT22;43005;52.922;5.742;2023-12-07T00:58:37;2.80;99.90
57132;DHT22;43005;52.922;5.742;2023-12-07T01:01:04;2.80;99.90
57132;DHT22;43005;52.922;5.742;2023-12-07T01:03:33;2.80;99.90
57132;DHT22;43005;52.922;5.742;2023-12-07T01:06:00;2.90;99.90
57132;DHT22;43005;52.922;5.742;2023-12-07T01:08:27;3.00;99.90
57132;DHT22;43005;52.922;5.742;2023-12-07T01:10:54;3.10;99.90
57132;DHT22;43005;52.922;5.742;2023-12-07T01:13:21;3.10;99.90
57132;DHT22;43005;52.922;5.742;2023-12-07T01:15:49;3.20;99.90
57132;DHT22;43005;52.922;5.742;2023-12-07T01:18:16;3.20;99.90
57132;DHT22;43005;52.922;5.742;2023-12-07T01:20:45;3.30;99.90
57132;DHT22;43005;52.922;5.742;2023-12-07T01:23:12;3.30;99.90
57132;DHT22;43005;52.922;5.742;2023-12-07T01:25:39;3.40;99.90
57132;DHT22;43005;52.922;5.742;2023-12-07T01:28:07;3.40;99.90
57132;DHT22;43005;52.922;5.742;2023-12-07T01:30:34;3.40;99.90
57132;DHT22;43005;52.922;5.742;2023-12-07T01:33:02;3.40;99.90
57132;DHT22;43005;52.922;5.742;2023-12-07T01:35:29;3.50;99.90
57132;DHT22;43005;52.922;5.742;2023-12-07T01:37:57;3.50;99.90
57132;DHT22;43005;52.922;5.742;2023-12-07T01:40:24;3.50;99.90
57132;DHT22;43005;52.922;5.742;2023-12-07T01:42:52;3.50;99.90
57132;DHT22;43005;52.922;5.742;2023-12-07T01:45:19;3.50;99.90
57132;DHT22;43005;52.922;5.742;2023-12-07T01:47:50;3.50;99.90
57132;DHT22;43005;52.922;5.742;2023-12-07T01:50:18;3.40;99.90
57132;DHT22;43005;52.922;5.742;2023-12-07T01:52:52;3.40;99.90
57132;DHT22;43005;52.922;5.742;2023-12-07T01:55:23;3.40;99.90
57132;DHT22;43005;52.922;5.742;2023-12-07T01:57:52;3.30;99.90
57132;DHT22;43005;52.922;5.742;2023-12-07T02:00:20;3.30;99.90
57132;DHT22;43005;52.922;5.742;2023-12-07T02:02:48;3.30;99.90
57132;DHT22;43005;52.922;5.742;2023-12-07T02:05:15;3.30;99.90
57132;DHT22;43005;52.922;5.742;2023-12-07T02:07:43;3.20;99.90
57132;DHT22;43005;52.922;5.742;2023-12-07T02:10:10;3.20;99.90
57132;DHT22;43005;52.922;5.742;2023-12-07T02:12:40;3.20;99.90
57132;DHT22;43005;52.922;5.742;2023-12-07T02:15:08;3.10;99.90
57132;DHT22;43005;52.922;5.742;2023-12-07T02:17:44;3.10;99.90
57132;DHT22;43005;52.922;5.742;2023-12-07T02:20:20;3.20;99.90
57132;DHT22;43005;52.922;5.742;2023-12-07T02:22:52;3.10;99.90
57132;DHT22;43005;52.922;5.742;2023-12-07T02:25:24;3.00;99.90
57132;DHT22;43005;52.922;5.742;2023-12-07T02:27:54;2.90;99.90
57132;DHT22;43005;52.922;5.742;2023-12-07T02:30:21;2.80;99.90
57132;DHT22;43005;52.922;5.742;2023-12-07T02:32:48;2.70;99.90
57132;DHT22;43005;52.922;5.742;2023-12-07T02:35:16;2.70;99.90
57132;DHT22;43005;52.922;5.742;2023-12-07T02:37:45;2.60;99.90
57132;DHT22;43005;52.922;5.742;2023-12-07T02:40:17;2.60;99.90
57132;DHT22;43005;52.922;5.742;2023-12-07T02:42:44;2.60;99.90
57132;DHT22;43005;52.922;5.742;2023-12-07T02:45:14;2.50;99.90
57132;DHT22;43005;52.922;5.742;2023-12-07T02:47:41;2.50;99.90
57132;DHT22;43005;52.922;5.742;2023-12-07T02:50:11;2.50;99.90
57132;DHT22;43005;52.922;5.742;2023-12-07T02:52:39;2.50;99.90
57132;DHT22;43005;52.922;5.742;2023-12-07T02:55:07;2.40;99.90
57132;DHT22;43005;52.922;5.742;2023-12-07T02:57:35;2.40;99.90
57132;DHT22;43005;52.922;5.742;2023-12-07T03:00:03;2.40;99.90
57132;DHT22;43005;52.922;5.742;2023-12-07T03:02:33;2.40;99.90
57132;DHT22;43005;52.922;5.742;2023-12-07T03:05:01;2.30;99.90
57132;DHT22;43005;52.922;5.742;2023-12-07T03:07:28;2.40;99.90
57132;DHT22;43005;52.922;5.742;2023-12-07T03:09:55;2.40;99.90
57132;DHT22;43005;52.922;5.742;2023-12-07T03:12:22;2.30;99.90
57132;DHT22;43005;52.922;5.742;2023-12-07T03:14:49;2.30;99.90
57132;DHT22;43005;52.922;5.742;2023-12-07T03:17:16;2.30;99.90
57132;DHT22;43005;52.922;5.742;2023-12-07T03:19:46;2.30;99.90
57132;DHT22;43005;52.922;5.742;2023-12-07T03:22:13;2.30;99.90
57132;DHT22;43005;52.922;5.742;2023-12-07T03:24:43;2.30;99.90
57132;DHT22;43005;52.922;5.742;2023-12-07T03:27:11;2.30;99.90
57132;DHT22;43005;52.922;5.742;2023-12-07T03:29:38;2.20;99.90
57132;DHT22;43005;52.922;5.742;2023-12-07T03:32:05;2.20;99.90
57132;DHT22;43005;52.922;5.742;2023-12-07T03:34:33;2.30;99.90
57132;DHT22;43005;52.922;5.742;2023-12-07T03:37:02;2.20;99.90
57132;DHT22;43005;52.922;5.742;2023-12-07T03:39:29;2.20;99.90
57132;DHT22;43005;52.922;5.742;2023-12-07T03:41:58;2.10;99.90
57132;DHT22;43005;52.922;5.742;2023-12-07T03:44:25;2.20;99.90
57132;DHT22;43005;52.922;5.742;2023-12-07T03:46:52;2.10;99.90
57132;DHT22;43005;52.922;5.742;2023-12-07T03:49:19;2.10;99.90
57132;DHT22;43005;52.922;5.742;2023-12-07T03:51:46;2.10;99.90
57132;DHT22;43005;52.922;5.742;2023-12-07T03:54:15;2.10;99.90
57132;DHT22;43005;52.922;5.742;2023-12-07T03:56:42;2.10;99.90
57132;DHT22;43005;52.922;5.742;2023-12-07T03:59:10;2.10;99.90
57132;DHT22;43005;52.922;5.742;2023-12-07T04:01:37;2.10;99.90
57132;DHT22;43005;52.922;5.742;2023-12-07T04:04:04;2.10;99.90
57132;DHT22;43005;52.922;5.742;2023-12-07T04:06:33;2.10;99.90
57132;DHT22;43005;52.922;5.742;2023-12-07T04:09:00;2.00;99.90
57132;DHT22;43005;52.922;5.742;2023-12-07T04:11:29;2.00;99.90
57132;DHT22;43005;52.922;5.742;2023-12-07T04:13:56;2.00;99.90
57132;DHT22;43005;52.922;5.742;2023-12-07T04:16:23;2.00;99.90
57132;DHT22;43005;52.922;5.742;2023-12-07T04:18:51;2.00;99.90
57132;DHT22;43005;52.922;5.742;2023-12-07T04:21:19;1.90;99.90
57132;DHT22;43005;52.922;5.742;2023-12-07T04:23:46;1.90;99.90
57132;DHT22;43005;52.922;5.742;2023-12-07T04:26:13;1.80;99.90
57132;DHT22;43005;52.922;5.742;2023-12-07T04:28:42;1.80;99.90
57132;DHT22;43005;52.922;5.742;2023-12-07T04:31:09;1.80;99.90
57132;DHT22;43005;52.922;5.742;2023-12-07T04:33:36;1.80;99.90
57132;DHT22;43005;52.922;5.742;2023-12-07T04:36:04;1.80;99.90
57132;DHT22;43005;52.922;5.742;2023-12-07T04:38:58;1.80;99.90
57132;DHT22;43005;52.922;5.742;2023-12-07T04:41:25;1.80;99.90
57132;DHT22;43005;52.922;5.742;2023-12-07T04:43:53;1.80;99.90
57132;DHT22;43005;52.922;5.742;2023-12-07T04:46:21;1.90;99.90
57132;DHT22;43005;52.922;5.742;2023-12-07T04:48:48;1.90;99.90
57132;DHT22;43005;52.922;5.742;2023-12-07T04:51:15;1.90;99.90
57132;DHT22;43005;52.922;5.742;2023-12-07T04:53:42;1.90;99.90
57132;DHT22;43005;52.922;5.742;2023-12-07T04:56:09;1.90;99.90
57132;DHT22;43005;52.922;5.742;2023-12-07T04:58:36;2.00;99.90
57132;DHT22;43005;52.922;5.742;2023-12-07T05:01:05;1.90;99.90
57132;DHT22;43005;52.922;5.742;2023-12-07T05:03:32;1.80;99.90
57132;DHT22;43005;52.922;5.742;2023-12-07T05:05:59;1.80;99.90
57132;DHT22;43005;52.922;5.742;2023-12-07T05:08:27;1.80;99.90
57132;DHT22;43005;52.922;5.742;2023-12-07T05:10:54;1.70;99.90
57132;DHT22;43005;52.922;5.742;2023-12-07T05:13:21;1.60;99.90
57132;DHT22;43005;52.922;5.742;2023-12-07T05:15:48;1.60;99.90
57132;DHT22;43005;52.922;5.742;2023-12-07T05:18:16;1.60;99.90
57132;DHT22;43005;52.922;5.742;2023-12-07T05:20:43;1.60;99.90
57132;DHT22;43005;52.922;5.742;2023-12-07T05:23:11;1.60;99.90
57132;DHT22;43005;52.922;5.742;2023-12-07T05:25:38;1.60;99.90
57132;DHT22;43005;52.922;5.742;2023-12-07T05:28:05;1.60;99.90
57132;DHT22;43005;52.922;5.742;2023-12-07T05:30:32;1.60;99.90
57132;DHT22;43005;52.922;5.742;2023-12-07T05:32:59;1.60;99.90
57132;DHT22;43005;52.922;5.742;2023-12-07T05:35:28;1.50;99.90
57132;DHT22;43005;52.922;5.742;2023-12-07T05:37:56;1.50;99.90
57132;DHT22;43005;52.922;5.742;2023-12-07T05:40:24;1.60;99.90
57132;DHT22;43005;52.922;5.742;2023-12-07T05:42:51;1.60;99.90
57132;DHT22;43005;52.922;5.742;2023-12-07T05:45:18;1.50;99.90
57132;DHT22;43005;52.922;5.742;2023-12-07T05:47:45;1.40;99.90
57132;DHT22;43005;52.922;5.742;2023-12-07T05:50:12;1.40;99.90
57132;DHT22;43005;52.922;5.742;2023-12-07T05:52:41;1.30;99.90
57132;DHT22;43005;52.922;5.742;2023-12-07T05:55:09;1.30;99.90
57132;DHT22;43005;52.922;5.742;2023-12-07T05:57:36;1.30;99.90
57132;DHT22;43005;52.922;5.742;2023-12-07T06:00:04;1.30;99.90
57132;DHT22;43005;52.922;5.742;2023-12-07T06:02:35;1.30;99.90
57132;DHT22;43005;52.922;5.742;2023-12-07T06:05:04;1.30;99.90
57132;DHT22;43005;52.922;5.742;2023-12-07T06:07:32;1.20;99.90
57132;DHT22;43005;52.922;5.742;2023-12-07T06:10:04;1.20;99.90
57132;DHT22;43005;52.922;5.742;2023-12-07T06:12:31;1.20;99.90
57132;DHT22;43005;52.922;5.742;2023-12-07T06:14:58;1.20;99.90
57132;DHT22;43005;52.922;5.742;2023-12-07T06:17:25;1.20;99.90
57132;DHT22;43005;52.922;5.742;2023-12-07T06:19:52;1.20;99.90
57132;DHT22;43005;52.922;5.742;2023-12-07T06:22:19;1.20;99.90
57132;DHT22;43005;52.922;5.742;2023-12-07T06:24:47;1.20;99.90
57132;DHT22;43005;52.922;5.742;2023-12-07T06:27:15;1.20;99.90
57132;DHT22;43005;52.922;5.742;2023-12-07T06:29:43;1.20;99.90
57132;DHT22;43005;52.922;5.742;2023-12-07T06:32:11;1.20;99.90
57132;DHT22;43005;52.922;5.742;2023-12-07T06:34:40;1.10;99.90
57132;DHT22;43005;52.922;5.742;2023-12-07T06:37:08;1.10;99.90
57132;DHT22;43005;52.922;5.742;2023-12-07T06:39:36;1.00;99.90
57132;DHT22;43005;52.922;5.742;2023-12-07T06:42:05;1.00;99.90
57132;DHT22;43005;52.922;5.742;2023-12-07T06:44:35;1.00;99.90
57132;DHT22;43005;52.922;5.742;2023-12-07T06:47:02;1.00;99.90
57132;DHT22;43005;52.922;5.742;2023-12-07T06:49:30;1.00;99.90
57132;DHT22;43005;52.922;5.742;2023-12-07T06:51:57;0.90;99.90
57132;DHT22;43005;52.922;5.742;2023-12-07T06:54:24;0.90;99.90
57132;DHT22;43005;52.922;5.742;2023-12-07T06:56:51;0.90;99.90
57132;DHT22;43005;52.922;5.742;2023-12-07T06:59:18;0.90;99.90
57132;DHT22;43005;52.922;5.742;2023-12-07T07:01:47;0.90;99.90
57132;DHT22;43005;52.922;5.742;2023-12-07T07:04:14;0.90;99.90
57132;DHT22;43005;52.922;5.742;2023-12-07T07:06:42;0.90;99.90
57132;DHT22;43005;52.922;5.742;2023-12-07T07:09:12;1.00;99.90
57132;DHT22;43005;52.922;5.742;2023-12-07T07:11:49;1.00;99.90
57132;DHT22;43005;52.922;5.742;2023-12-07T07:14:17;1.00;99.90
57132;DHT22;43005;52.922;5.742;2023-12-07T07:16:47;1.00;99.90
57132;DHT22;43005;52.922;5.742;2023-12-07T07:19:14;1.00;99.90
57132;DHT22;43005;52.922;5.742;2023-12-07T07:21:42;1.00;99.90
57132;DHT22;43005;52.922;5.742;2023-12-07T07:24:23;1.00;99.90
57132;DHT22;43005;52.922;5.742;2023-12-07T07:27:01;1.00;99.90
57132;DHT22;43005;52.922;5.742;2023-12-07T07:29:29;1.00;99.90
57132;DHT22;43005;52.922;5.742;2023-12-07T07:31:59;1.00;99.90
57132;DHT22;43005;52.922;5.742;2023-12-07T07:34:26;1.00;99.90
57132;DHT22;43005;52.922;5.742;2023-12-07T07:36:55;1.00;99.90
57132;DHT22;43005;52.922;5.742;2023-12-07T07:39:23;1.00;99.90
57132;DHT22;43005;52.922;5.742;2023-12-07T07:41:50;1.00;99.90
57132;DHT22;43005;52.922;5.742;2023-12-07T07:44:17;1.00;99.90
57132;DHT22;43005;52.922;5.742;2023-12-07T07:46:47;0.90;99.90
57132;DHT22;43005;52.922;5.742;2023-12-07T07:49:18;0.90;99.90
57132;DHT22;43005;52.922;5.742;2023-12-07T07:51:45;1.00;99.90
57132;DHT22;43005;52.922;5.742;2023-12-07T07:54:12;1.00;99.90
57132;DHT22;43005;52.922;5.742;2023-12-07T07:56:43;1.00;99.90
57132;DHT22;43005;52.922;5.742;2023-12-07T07:59:10;1.00;99.90
57132;DHT22;43005;52.922;5.742;2023-12-07T08:01:37;1.00;99.90
57132;DHT22;43005;52.922;5.742;2023-12-07T08:04:04;1.10;99.90
57132;DHT22;43005;52.922;5.742;2023-12-07T08:06:33;1.10;99.90
57132;DHT22;43005;52.922;5.742;2023-12-07T08:09:00;1.10;99.90
57132;DHT22;43005;52.922;5.742;2023-12-07T08:11:29;1.20;99.90
57132;DHT22;43005;52.922;5.742;2023-12-07T08:13:56;1.20;99.90
57132;DHT22;43005;52.922;5.742;2023-12-07T08:16:27;1.30;99.90
57132;DHT22;43005;52.922;5.742;2023-12-07T08:18:54;1.30;99.90
57132;DHT22;43005;52.922;5.742;2023-12-07T08:21:22;1.40;99.90
57132;DHT22;43005;52.922;5.742;2023-12-07T08:23:51;1.40;99.90
57132;DHT22;43005;52.922;5.742;2023-12-07T08:26:18;1.40;99.90
57132;DHT22;43005;52.922;5.742;2023-12-07T08:28:54;1.50;99.90
57132;DHT22;43005;52.922;5.742;2023-12-07T08:31:45;1.50;99.90
57132;DHT22;43005;52.922;5.742;2023-12-07T08:34:12;1.50;99.90
57132;DHT22;43005;52.922;5.742;2023-12-07T08:36:39;1.50;99.90
57132;DHT22;43005;52.922;5.742;2023-12-07T08:39:09;1.60;99.90
57132;DHT22;43005;52.922;5.742;2023-12-07T08:41:42;1.70;99.90
57132;DHT22;43005;52.922;5.742;2023-12-07T08:44:09;1.70;99.90
57132;DHT22;43005;52.922;5.742;2023-12-07T08:46:37;1.70;99.90
57132;DHT22;43005;52.922;5.742;2023-12-07T08:49:04;1.80;99.90
57132;DHT22;43005;52.922;5.742;2023-12-07T08:51:36;1.90;99.90
57132;DHT22;43005;52.922;5.742;2023-12-07T08:54:03;1.90;99.90
57132;DHT22;43005;52.922;5.742;2023-12-07T08:56:32;2.00;99.90
57132;DHT22;43005;52.922;5.742;2023-12-07T08:58:59;2.10;99.90
57132;DHT22;43005;52.922;5.742;2023-12-07T09:01:26;2.20;99.90
57132;DHT22;43005;52.922;5.742;2023-12-07T09:03:53;2.30;99.90
57132;DHT22;43005;52.922;5.742;2023-12-07T09:06:20;2.30;99.90
57132;DHT22;43005;52.922;5.742;2023-12-07T09:08:47;2.40;99.90
57132;DHT22;43005;52.922;5.742;2023-12-07T09:11:14;2.50;99.90
57132;DHT22;43005;52.922;5.742;2023-12-07T09:13:43;2.60;99.90
57132;DHT22;43005;52.922;5.742;2023-12-07T09:16:10;2.60;99.90
57132;DHT22;43005;52.922;5.742;2023-12-07T09:18:37;2.70;99.90
57132;DHT22;43005;52.922;5.742;2023-12-07T09:21:24;2.80;99.90
57132;DHT22;43005;52.922;5.742;2023-12-07T09:24:06;2.90;99.90
57132;DHT22;43005;52.922;5.742;2023-12-07T09:26:36;2.90;99.90
57132;DHT22;43005;52.922;5.742;2023-12-07T09:29:11;3.00;99.90
57132;DHT22;43005;52.922;5.742;2023-12-07T09:31:38;3.10;99.90
57132;DHT22;43005;52.922;5.742;2023-12-07T09:34:06;3.20;99.90
57132;DHT22;43005;52.922;5.742;2023-12-07T09:36:34;3.20;99.90
57132;DHT22;43005;52.922;5.742;2023-12-07T09:39:03;3.30;99.90
57132;DHT22;43005;52.922;5.742;2023-12-07T09:41:30;3.40;99.90
57132;DHT22;43005;52.922;5.742;2023-12-07T09:43:57;3.50;99.90
57132;DHT22;43005;52.922;5.742;2023-12-07T09:46:28;3.60;99.90
57132;DHT22;43005;52.922;5.742;2023-12-07T09:48:56;3.60;99.90
57132;DHT22;43005;52.922;5.742;2023-12-07T09:51:24;3.70;99.90
57132;DHT22;43005;52.922;5.742;2023-12-07T09:53:52;3.70;99.90
57132;DHT22;43005;52.922;5.742;2023-12-07T09:56:20;3.70;99.90
57132;DHT22;43005;52.922;5.742;2023-12-07T09:58:47;3.70;99.90
57132;DHT22;43005;52.922;5.742;2023-12-07T10:01:14;3.80;99.90
57132;DHT22;43005;52.922;5.742;2023-12-07T10:03:42;3.90;99.90
57132;DHT22;43005;52.922;5.742;2023-12-07T10:06:12;3.90;99.90
57132;DHT22;43005;52.922;5.742;2023-12-07T10:08:39;3.90;99.90
57132;DHT22;43005;52.922;5.742;2023-12-07T10:11:08;3.90;99.90
57132;DHT22;43005;52.922;5.742;2023-12-07T10:13:36;4.00;99.90
57132;DHT22;43005;52.922;5.742;2023-12-07T10:16:08;4.10;99.90
57132;DHT22;43005;52.922;5.742;2023-12-07T10:18:35;4.10;99.90
57132;DHT22;43005;52.922;5.742;2023-12-07T10:21:04;4.10;99.90
57132;DHT22;43005;52.922;5.742;2023-12-07T10:23:31;4.20;99.90
57132;DHT22;43005;52.922;5.742;2023-12-07T10:25:59;4.30;99.90
57132;DHT22;43005;52.922;5.742;2023-12-07T10:28:26;4.30;99.90
57132;DHT22;43005;52.922;5.742;2023-12-07T10:30:53;4.30;99.90
57132;DHT22;43005;52.922;5.742;2023-12-07T10:33:21;4.20;99.90
57132;DHT22;43005;52.922;5.742;2023-12-07T10:35:48;4.20;99.90
57132;DHT22;43005;52.922;5.742;2023-12-07T10:38:17;4.20;99.90
57132;DHT22;43005;52.922;5.742;2023-12-07T10:40:46;4.10;99.90
57132;DHT22;43005;52.922;5.742;2023-12-07T10:43:16;4.00;99.90
57132;DHT22;43005;52.922;5.742;2023-12-07T10:45:45;3.90;99.90
57132;DHT22;43005;52.922;5.742;2023-12-07T10:48:14;3.90;99.90
57132;DHT22;43005;52.922;5.742;2023-12-07T10:50:42;3.90;99.90
57132;DHT22;43005;52.922;5.742;2023-12-07T10:53:26;3.80;99.90
57132;DHT22;43005;52.922;5.742;2023-12-07T10:55:56;3.60;99.90
57132;DHT22;43005;52.922;5.742;2023-12-07T10:58:26;3.40;99.90
57132;DHT22;43005;52.922;5.742;2023-12-07T11:00:55;3.40;99.90
57132;DHT22;43005;52.922;5.742;2023-12-07T11:03:24;3.20;99.90
57132;DHT22;43005;52.922;5.742;2023-12-07T11:05:55;3.20;99.90
57132;DHT22;43005;52.922;5.742;2023-12-07T11:08:28;3.20;99.90
57132;DHT22;43005;52.922;5.742;2023-12-07T11:11:04;3.10;99.90
57132;DHT22;43005;52.922;5.742;2023-12-07T11:13:36;3.10;99.90
57132;DHT22;43005;52.922;5.742;2023-12-07T11:16:03;3.00;99.90
57132;DHT22;43005;52.922;5.742;2023-12-07T11:18:31;3.00;99.90
57132;DHT22;43005;52.922;5.742;2023-12-07T11:21:00;3.10;99.90
57132;DHT22;43005;52.922;5.742;2023-12-07T11:23:29;3.00;99.90
57132;DHT22;43005;52.922;5.742;2023-12-07T11:25:57;2.90;99.90
57132;DHT22;43005;52.922;5.742;2023-12-07T11:28:35;2.80;99.90
57132;DHT22;43005;52.922;5.742;2023-12-07T11:31:03;2.80;99.90
57132;DHT22;43005;52.922;5.742;2023-12-07T11:33:30;2.70;99.90
57132;DHT22;43005;52.922;5.742;2023-12-07T11:36:04;2.70;99.90
57132;DHT22;43005;52.922;5.742;2023-12-07T11:38:33;2.70;99.90
57132;DHT22;43005;52.922;5.742;2023-12-07T11:41:00;2.60;99.90
57132;DHT22;43005;52.922;5.742;2023-12-07T11:43:46;2.60;99.90
57132;DHT22;43005;52.922;5.742;2023-12-07T11:46:16;2.50;99.90
57132;DHT22;43005;52.922;5.742;2023-12-07T11:48:54;2.50;99.90
57132;DHT22;43005;52.922;5.742;2023-12-07T11:51:23;2.40;99.90
57132;DHT22;43005;52.922;5.742;2023-12-07T11:53:52;2.30;99.90
57132;DHT22;43005;52.922;5.742;2023-12-07T11:56:24;2.30;99.90
57132;DHT22;43005;52.922;5.742;2023-12-07T11:58:51;2.30;99.90
57132;DHT22;43005;52.922;5.742;2023-12-07T12:01:18;2.30;99.90
57132;DHT22;43005;52.922;5.742;2023-12-07T12:03:50;2.30;99.90
57132;DHT22;43005;52.922;5.742;2023-12-07T12:06:17;2.40;99.90
57132;DHT22;43005;52.922;5.742;2023-12-07T12:09:10;2.40;99.90
57132;DHT22;43005;52.922;5.742;2023-12-07T12:11:44;2.30;99.90
57132;DHT22;43005;52.922;5.742;2023-12-07T12:14:14;2.30;99.90
57132;DHT22;43005;52.922;5.742;2023-12-07T12:16:44;2.30;99.90
57132;DHT22;43005;52.922;5.742;2023-12-07T12:19:14;2.30;99.90
57132;DHT22;43005;52.922;5.742;2023-12-07T12:21:42;2.30;99.90
57132;DHT22;43005;52.922;5.742;2023-12-07T12:24:12;2.30;99.90
57132;DHT22;43005;52.922;5.742;2023-12-07T12:26:42;2.20;99.90
57132;DHT22;43005;52.922;5.742;2023-12-07T12:29:13;2.20;99.90
57132;DHT22;43005;52.922;5.742;2023-12-07T12:31:41;2.20;99.90
57132;DHT22;43005;52.922;5.742;2023-12-07T12:34:08;2.30;99.90
57132;DHT22;43005;52.922;5.742;2023-12-07T12:36:40;2.30;99.90
57132;DHT22;43005;52.922;5.742;2023-12-07T12:39:11;2.40;99.90
57132;DHT22;43005;52.922;5.742;2023-12-07T12:41:39;2.40;99.90
57132;DHT22;43005;52.922;5.742;2023-12-07T12:44:06;2.40;99.90
57132;DHT22;43005;52.922;5.742;2023-12-07T12:46:48;2.30;99.90
57132;DHT22;43005;52.922;5.742;2023-12-07T12:49:15;2.20;99.90
57132;DHT22;43005;52.922;5.742;2023-12-07T12:51:44;2.10;99.90
57132;DHT22;43005;52.922;5.742;2023-12-07T12:54:12;2.10;99.90
57132;DHT22;43005;52.922;5.742;2023-12-07T12:56:41;2.00;99.90
57132;DHT22;43005;52.922;5.742;2023-12-07T12:59:20;2.00;99.90
57132;DHT22;43005;52.922;5.742;2023-12-07T13:01:47;2.00;99.90
57132;DHT22;43005;52.922;5.742;2023-12-07T13:04:14;2.00;99.90
57132;DHT22;43005;52.922;5.742;2023-12-07T13:06:41;2.00;99.90
57132;DHT22;43005;52.922;5.742;2023-12-07T13:09:09;1.90;99.90
57132;DHT22;43005;52.922;5.742;2023-12-07T13:11:37;2.00;99.90
57132;DHT22;43005;52.922;5.742;2023-12-07T13:14:04;2.00;99.90
57132;DHT22;43005;52.922;5.742;2023-12-07T13:16:32;2.00;99.90
57132;DHT22;43005;52.922;5.742;2023-12-07T13:19:00;2.00;99.90
57132;DHT22;43005;52.922;5.742;2023-12-07T13:21:27;2.00;99.90
57132;DHT22;43005;52.922;5.742;2023-12-07T13:23:54;2.00;99.90
57132;DHT22;43005;52.922;5.742;2023-12-07T13:26:22;2.10;99.90
57132;DHT22;43005;52.922;5.742;2023-12-07T13:28:51;2.10;99.90
57132;DHT22;43005;52.922;5.742;2023-12-07T13:31:18;2.10;99.90
57132;DHT22;43005;52.922;5.742;2023-12-07T13:34:25;2.00;99.90
57132;DHT22;43005;52.922;5.742;2023-12-07T13:36:47;2.00;99.90
57132;DHT22;43005;52.922;5.742;2023-12-07T13:39:15;2.00;99.90
57132;DHT22;43005;52.922;5.742;2023-12-07T13:41:46;1.90;99.90
57132;DHT22;43005;52.922;5.742;2023-12-07T13:44:16;2.00;99.90
57132;DHT22;43005;52.922;5.742;2023-12-07T13:46:45;1.90;99.90
57132;DHT22;43005;52.922;5.742;2023-12-07T13:49:13;2.00;99.90
57132;DHT22;43005;52.922;5.742;2023-12-07T13:51:41;1.90;99.90
57132;DHT22;43005;52.922;5.742;2023-12-07T13:54:08;1.90;99.90
57132;DHT22;43005;52.922;5.742;2023-12-07T13:56:36;1.80;99.90
57132;DHT22;43005;52.922;5.742;2023-12-07T13:59:03;1.80;99.90
57132;DHT22;43005;52.922;5.742;2023-12-07T14:01:44;1.80;99.90
57132;DHT22;43005;52.922;5.742;2023-12-07T14:04:11;1.80;99.90
57132;DHT22;43005;52.922;5.742;2023-12-07T14:06:55;1.90;99.90
57132;DHT22;43005;52.922;5.742;2023-12-07T14:09:39;1.90;99.90
57132;DHT22;43005;52.922;5.742;2023-12-07T14:12:08;1.90;99.90
57132;DHT22;43005;52.922;5.742;2023-12-07T14:14:41;1.90;99.90
57132;DHT22;43005;52.922;5.742;2023-12-07T14:17:10;2.00;99.90
57132;DHT22;43005;52.922;5.742;2023-12-07T14:19:53;2.00;99.90
57132;DHT22;43005;52.922;5.742;2023-12-07T14:22:21;2.10;99.90
57132;DHT22;43005;52.922;5.742;2023-12-07T14:24:48;2.10;99.90
57132;DHT22;43005;52.922;5.742;2023-12-07T14:27:15;2.10;99.90
57132;DHT22;43005;52.922;5.742;2023-12-07T14:29:42;2.10;99.90
57132;DHT22;43005;52.922;5.742;2023-12-07T14:32:11;2.10;99.90
57132;DHT22;43005;52.922;5.742;2023-12-07T14:34:51;2.20;99.90
57132;DHT22;43005;52.922;5.742;2023-12-07T14:37:22;2.20;99.90
57132;DHT22;43005;52.922;5.742;2023-12-07T14:39:49;2.20;99.90
57132;DHT22;43005;52.922;5.742;2023-12-07T14:42:16;2.20;99.90
57132;DHT22;43005;52.922;5.742;2023-12-07T14:45:13;2.30;99.90
57132;DHT22;43005;52.922;5.742;2023-12-07T14:47:42;2.20;99.90
57132;DHT22;43005;52.922;5.742;2023-12-07T14:50:09;2.20;99.90
57132;DHT22;43005;52.922;5.742;2023-12-07T14:52:41;2.20;99.90
57132;DHT22;43005;52.922;5.742;2023-12-07T14:55:09;2.20;99.90
57132;DHT22;43005;52.922;5.742;2023-12-07T14:57:47;2.20;99.90
57132;DHT22;43005;52.922;5.742;2023-12-07T15:00:34;2.30;99.90
57132;DHT22;43005;52.922;5.742;2023-12-07T15:03:04;2.30;99.90
57132;DHT22;43005;52.922;5.742;2023-12-07T15:05:33;2.30;99.90
57132;DHT22;43005;52.922;5.742;2023-12-07T15:08:00;2.30;99.90
57132;DHT22;43005;52.922;5.742;2023-12-07T15:10:28;2.30;99.90
57132;DHT22;43005;52.922;5.742;2023-12-07T15:12:55;2.30;99.90
57132;DHT22;43005;52.922;5.742;2023-12-07T15:15:22;2.30;99.90
57132;DHT22;43005;52.922;5.742;2023-12-07T15:17:49;2.40;99.90
57132;DHT22;43005;52.922;5.742;2023-12-07T15:20:18;2.40;99.90
57132;DHT22;43005;52.922;5.742;2023-12-07T15:22:45;2.40;99.90
57132;DHT22;43005;52.922;5.742;2023-12-07T15:25:12;2.40;99.90
57132;DHT22;43005;52.922;5.742;2023-12-07T15:27:39;2.40;99.90
57132;DHT22;43005;52.922;5.742;2023-12-07T15:30:08;2.30;99.90
57132;DHT22;43005;52.922;5.742;2023-12-07T15:32:35;2.30;99.90
57132;DHT22;43005;52.922;5.742;2023-12-07T15:35:02;2.40;99.90
57132;DHT22;43005;52.922;5.742;2023-12-07T15:37:31;2.30;99.90
57132;DHT22;43005;52.922;5.742;2023-12-07T15:39:58;2.30;99.90
57132;DHT22;43005;52.922;5.742;2023-12-07T15:42:25;2.30;99.90
57132;DHT22;43005;52.922;5.742;2023-12-07T15:44:52;2.30;99.90
57132;DHT22;43005;52.922;5.742;2023-12-07T15:47:19;2.30;99.90
57132;DHT22;43005;52.922;5.742;2023-12-07T15:49:46;2.30;99.90
57132;DHT22;43005;52.922;5.742;2023-12-07T15:52:13;2.30;99.90
57132;DHT22;43005;52.922;5.742;2023-12-07T15:54:42;2.30;99.90
57132;DHT22;43005;52.922;5.742;2023-12-07T15:57:10;2.40;99.90